Time;durP1;ratioP1;P1;durP2;ratioP2;P2;SDS_P1;SDS_P2;PMS_P1;PMS_P2;Temp;Humidity;BMP_temperature;BMP_pressure;BME280_temperature;BME280_humidity;BME280_pressure;Samples;Min_cycle;Max_cycle;Signal;HPM_P1;HPM_P2
2022/05/17 00:01:59;;;;;;;;;;;13.10;99.90;;;;;;6159134;23;20004;-71
2022/05/17 00:04:28;;;;;;;;;;;13.00;99.90;;;;;;6159688;23;19927;-71
2022/05/17 00:06:56;;;;;;;;;;;13.00;99.90;;;;;;6186843;23;19916;-71
2022/05/17 00:09:22;;;;;;;;;;;13.80;99.90;;;;;;6158344;23;19920;-71
2022/05/17 00:11:48;;;;;;;;;;;13.00;99.90;;;;;;6186541;23;19920;-72
2022/05/17 00:14:14;;;;;;;;;;;13.00;99.90;;;;;;6184825;23;19916;-71
2022/05/17 00:16:41;;;;;;;;;;;12.90;99.90;;;;;;6185464;23;19921;-71
2022/05/17 00:19:08;;;;;;;;;;;12.90;99.90;;;;;;6186228;23;19967;-72
2022/05/17 00:21:34;;;;;;;;;;;12.90;99.90;;;;;;6187195;23;19920;-72
2022/05/17 00:24:00;;;;;;;;;;;12.90;99.90;;;;;;6185681;23;20261;-71
2022/05/17 00:26:26;;;;;;;;;;;12.80;99.90;;;;;;6186632;23;19916;-72
2022/05/17 00:28:51;;;;;;;;;;;12.80;99.90;;;;;;6186393;23;19927;-71
2022/05/17 00:31:17;;;;;;;;;;;12.80;99.90;;;;;;6184722;23;19926;-72
2022/05/17 00:33:42;;;;;;;;;;;12.80;99.90;;;;;;6160257;23;19932;-72
2022/05/17 00:36:08;;;;;;;;;;;12.80;99.90;;;;;;6187024;23;19920;-72
2022/05/17 00:38:34;;;;;;;;;;;12.80;99.90;;;;;;6186148;23;19920;-72
2022/05/17 00:41:00;;;;;;;;;;;12.80;99.90;;;;;;6160237;23;19927;-72
2022/05/17 00:43:29;;;;;;;;;;;12.80;99.90;;;;;;6159785;23;19920;-72
2022/05/17 00:45:54;;;;;;;;;;;12.80;99.90;;;;;;6186317;23;19920;-72
2022/05/17 00:48:20;;;;;;;;;;;12.80;99.90;;;;;;6186137;23;19948;-71
2022/05/17 00:51:03;;;;;;;;;;;12.80;99.90;;;;;;6185976;23;20363;-72
2022/05/17 00:53:33;;;;;;;;;;;12.80;99.90;;;;;;6185653;23;19928;-72
2022/05/17 00:56:00;;;;;;;;;;;12.90;99.90;;;;;;6185741;23;19928;-72
2022/05/17 00:58:34;;;;;;;;;;;13.00;99.90;;;;;;6159502;23;19921;-71
2022/05/17 01:01:19;;;;;;;;;;;13.00;99.90;;;;;;6160729;23;19928;-71
2022/05/17 01:03:47;;;;;;;;;;;13.10;99.90;;;;;;6186895;23;19983;-71
2022/05/17 01:06:17;;;;;;;;;;;13.10;99.90;;;;;;6159538;23;19920;-72
2022/05/17 01:08:43;;;;;;;;;;;13.10;99.90;;;;;;6160044;23;19925;-72
2022/05/17 01:11:08;;;;;;;;;;;13.10;99.90;;;;;;6159830;23;19924;-72
2022/05/17 01:16:19;;;;;;;;;;;13.00;99.90;;;;;;6160021;23;19924;-72
2022/05/17 01:18:44;;;;;;;;;;;13.00;99.90;;;;;;6160598;23;19926;-72
2022/05/17 01:21:11;;;;;;;;;;;13.10;99.90;;;;;;6186167;23;19920;-72
2022/05/17 01:23:36;;;;;;;;;;;13.00;99.90;;;;;;6161019;23;19921;-73
2022/05/17 01:26:03;;;;;;;;;;;13.00;99.90;;;;;;6159468;23;19978;-72
2022/05/17 01:28:34;;;;;;;;;;;13.00;99.90;;;;;;6186140;23;19920;-72
2022/05/17 01:31:04;;;;;;;;;;;13.00;99.90;;;;;;6160234;23;19999;-72
2022/05/17 01:33:31;;;;;;;;;;;12.90;99.90;;;;;;6184602;23;19927;-72
2022/05/17 01:35:57;;;;;;;;;;;12.90;99.90;;;;;;6159284;23;19927;-72
2022/05/17 01:38:26;;;;;;;;;;;12.80;99.90;;;;;;6184928;23;19999;-72
2022/05/17 01:40:51;;;;;;;;;;;12.70;99.90;;;;;;6185346;23;19959;-72
2022/05/17 01:43:17;;;;;;;;;;;12.70;99.90;;;;;;6186393;23;19928;-72
2022/05/17 01:45:45;;;;;;;;;;;12.60;99.90;;;;;;6161266;23;20257;-71
2022/05/17 01:48:11;;;;;;;;;;;13.40;99.90;;;;;;6186699;23;19928;-72
2022/05/17 01:50:36;;;;;;;;;;;12.40;99.90;;;;;;6188602;23;20245;-72
2022/05/17 01:53:02;;;;;;;;;;;12.40;99.90;;;;;;6188123;23;19928;-72
2022/05/17 01:55:28;;;;;;;;;;;12.40;99.90;;;;;;6161259;23;19932;-72
2022/05/17 01:57:53;;;;;;;;;;;12.30;99.90;;;;;;6188384;23;19927;-72
2022/05/17 02:00:21;;;;;;;;;;;12.30;99.90;;;;;;6187391;23;20014;-72
2022/05/17 02:02:46;;;;;;;;;;;12.30;99.90;;;;;;6186310;23;19920;-72
2022/05/17 02:05:15;;;;;;;;;;;12.30;99.90;;;;;;6188017;23;19999;-72
2022/05/17 02:07:41;;;;;;;;;;;12.20;99.90;;;;;;6161360;23;19920;-72
2022/05/17 02:10:07;;;;;;;;;;;12.10;99.90;;;;;;6187491;23;19987;-72
2022/05/17 02:12:33;;;;;;;;;;;12.20;99.90;;;;;;6162104;23;19924;-72
2022/05/17 02:14:59;;;;;;;;;;;12.10;99.90;;;;;;6188014;23;19920;-72
2022/05/17 02:17:25;;;;;;;;;;;12.10;99.90;;;;;;6160457;23;19958;-71
2022/05/17 02:19:50;;;;;;;;;;;12.10;99.90;;;;;;6160408;23;19999;-72
2022/05/17 02:22:16;;;;;;;;;;;12.10;99.90;;;;;;6161539;23;19920;-72
2022/05/17 02:24:41;;;;;;;;;;;12.00;99.90;;;;;;6187148;23;20293;-72
2022/05/17 02:27:07;;;;;;;;;;;11.90;99.90;;;;;;6187746;23;19920;-72
2022/05/17 02:29:32;;;;;;;;;;;11.80;99.90;;;;;;6160538;23;19924;-72
2022/05/17 02:31:58;;;;;;;;;;;11.80;99.90;;;;;;6187002;23;19920;-72
2022/05/17 02:34:27;;;;;;;;;;;11.80;99.90;;;;;;6160408;23;19920;-72
2022/05/17 02:36:52;;;;;;;;;;;11.80;99.90;;;;;;6159864;23;19928;-73
2022/05/17 02:39:18;;;;;;;;;;;11.70;99.90;;;;;;6159664;23;20246;-72
2022/05/17 02:41:43;;;;;;;;;;;11.70;99.90;;;;;;6161702;23;19927;-72
2022/05/17 02:44:09;;;;;;;;;;;11.70;99.90;;;;;;6186866;23;19960;-72
2022/05/17 02:46:34;;;;;;;;;;;11.70;99.90;;;;;;6162459;23;20397;-72
2022/05/17 02:49:04;;;;;;;;;;;11.70;99.90;;;;;;6161025;23;19926;-72
2022/05/17 02:51:30;;;;;;;;;;;11.70;99.90;;;;;;6187551;23;20256;-72
2022/05/17 02:53:55;;;;;;;;;;;11.60;99.90;;;;;;6187536;23;19920;-72
2022/05/17 02:56:21;;;;;;;;;;;11.60;99.90;;;;;;6186182;23;19921;-72
2022/05/17 02:58:46;;;;;;;;;;;11.60;99.90;;;;;;6186264;23;19952;-72
2022/05/17 03:01:12;;;;;;;;;;;11.60;99.90;;;;;;6186811;23;20010;-72
2022/05/17 03:03:38;;;;;;;;;;;11.60;99.90;;;;;;6186623;23;20299;-72
2022/05/17 03:06:04;;;;;;;;;;;11.60;99.90;;;;;;6159513;23;19960;-72
2022/05/17 03:08:30;;;;;;;;;;;11.60;99.90;;;;;;6160561;23;20248;-72
2022/05/17 03:10:55;;;;;;;;;;;11.60;99.90;;;;;;6187554;23;19940;-72
2022/05/17 03:13:21;;;;;;;;;;;11.60;99.90;;;;;;6185510;23;19916;-72
2022/05/17 03:15:49;;;;;;;;;;;11.60;99.90;;;;;;6184200;23;20218;-72
2022/05/17 03:18:15;;;;;;;;;;;11.60;99.90;;;;;;6186024;23;20002;-72
2022/05/17 03:20:41;;;;;;;;;;;11.50;99.90;;;;;;6184867;23;19924;-72
2022/05/17 03:23:06;;;;;;;;;;;11.50;99.90;;;;;;6158822;23;20392;-72
2022/05/17 03:25:32;;;;;;;;;;;11.50;99.90;;;;;;6186833;23;19920;-72
2022/05/17 03:27:57;;;;;;;;;;;11.50;99.90;;;;;;6185111;23;20011;-70
2022/05/17 03:30:23;;;;;;;;;;;11.60;99.90;;;;;;6159669;23;19920;-72
2022/05/17 03:32:49;;;;;;;;;;;11.50;99.90;;;;;;6160231;23;19924;-71
2022/05/17 03:35:16;;;;;;;;;;;11.60;99.90;;;;;;6160250;23;20333;-72
2022/05/17 03:37:41;;;;;;;;;;;11.60;99.90;;;;;;6160731;23;20365;-72
2022/05/17 03:40:09;;;;;;;;;;;11.60;99.90;;;;;;6184132;23;19970;-72
2022/05/17 03:42:35;;;;;;;;;;;11.50;99.90;;;;;;6186363;23;19920;-72
2022/05/17 03:45:01;;;;;;;;;;;11.50;99.90;;;;;;6159827;23;19959;-72
2022/05/17 03:47:30;;;;;;;;;;;11.60;99.90;;;;;;6185819;23;19923;-73
2022/05/17 03:49:56;;;;;;;;;;;11.60;99.90;;;;;;6186608;23;20237;-72
2022/05/17 03:52:25;;;;;;;;;;;11.60;99.90;;;;;;6159812;23;19931;-72
2022/05/17 03:54:53;;;;;;;;;;;11.60;99.90;;;;;;6159534;23;20365;-73
2022/05/17 03:57:19;;;;;;;;;;;11.60;99.90;;;;;;6159680;23;19935;-72
2022/05/17 03:59:47;;;;;;;;;;;11.70;99.90;;;;;;6161261;23;19923;-74
2022/05/17 04:02:13;;;;;;;;;;;12.60;99.90;;;;;;6186935;23;19924;-72
2022/05/17 04:04:39;;;;;;;;;;;11.70;99.90;;;;;;6158419;23;20252;-70
2022/05/17 04:07:04;;;;;;;;;;;11.70;99.90;;;;;;6185167;23;20340;-77
2022/05/17 04:09:30;;;;;;;;;;;11.70;99.90;;;;;;6186331;23;19963;-72
2022/05/17 04:11:56;;;;;;;;;;;11.70;99.90;;;;;;6160854;23;19927;-73
2022/05/17 04:14:21;;;;;;;;;;;11.80;99.90;;;;;;6160087;23;20338;-73
2022/05/17 04:16:53;;;;;;;;;;;11.80;99.90;;;;;;6159656;23;19920;-75
2022/05/17 04:19:18;;;;;;;;;;;11.90;99.90;;;;;;6160434;23;19921;-76
2022/05/17 04:21:47;;;;;;;;;;;12.00;99.90;;;;;;6160987;23;19924;-76
2022/05/17 04:24:19;;;;;;;;;;;12.00;99.90;;;;;;6157746;23;19924;-75
2022/05/17 04:26:45;;;;;;;;;;;12.00;99.90;;;;;;6160740;23;19951;-76
2022/05/17 04:29:11;;;;;;;;;;;12.10;99.90;;;;;;6158746;23;19920;-75
2022/05/17 04:31:39;;;;;;;;;;;12.30;99.90;;;;;;6159868;23;19924;-75
2022/05/17 04:34:05;;;;;;;;;;;12.30;99.90;;;;;;6185595;23;19924;-75
2022/05/17 04:36:33;;;;;;;;;;;12.40;99.90;;;;;;6159457;23;19924;-76
2022/05/17 04:39:05;;;;;;;;;;;12.50;99.90;;;;;;6158558;23;20356;-75
2022/05/17 04:41:33;;;;;;;;;;;12.50;99.90;;;;;;6159859;23;19999;-77
2022/05/17 04:43:59;;;;;;;;;;;12.60;99.90;;;;;;6185885;23;19920;-74
2022/05/17 04:46:25;;;;;;;;;;;12.70;99.90;;;;;;6161838;23;19982;-76
2022/05/17 04:48:51;;;;;;;;;;;12.70;99.90;;;;;;6186422;23;19920;-75
2022/05/17 04:51:20;;;;;;;;;;;12.90;99.90;;;;;;6161470;23;19920;-76
2022/05/17 04:53:46;;;;;;;;;;;14.10;99.90;;;;;;6161568;23;19920;-76
2022/05/17 04:56:14;;;;;;;;;;;13.10;99.90;;;;;;6161874;23;19926;-76
2022/05/17 04:58:43;;;;;;;;;;;13.20;99.90;;;;;;6186684;23;19990;-76
2022/05/17 05:01:08;;;;;;;;;;;13.40;99.90;;;;;;6186916;23;19926;-77
2022/05/17 05:03:34;;;;;;;;;;;13.50;99.90;;;;;;6185864;23;19920;-75
2022/05/17 05:06:00;;;;;;;;;;;13.60;99.90;;;;;;6159175;23;19917;-76
2022/05/17 05:08:28;;;;;;;;;;;13.80;99.90;;;;;;6160306;23;19927;-77
2022/05/17 05:10:53;;;;;;;;;;;13.90;99.90;;;;;;6161135;23;19924;-76
2022/05/17 05:13:20;;;;;;;;;;;14.10;99.90;;;;;;6184859;23;19924;-77
2022/05/17 05:15:46;;;;;;;;;;;14.20;99.90;;;;;;6187598;23;20324;-79
2022/05/17 05:18:13;;;;;;;;;;;14.30;99.90;;;;;;6158788;23;19958;-74
2022/05/17 05:20:43;;;;;;;;;;;14.40;99.90;;;;;;6160140;23;20362;-71
2022/05/17 05:23:11;;;;;;;;;;;14.50;99.90;;;;;;6161315;23;19955;-70
2022/05/17 05:25:37;;;;;;;;;;;14.70;99.90;;;;;;6161844;23;19917;-72
2022/05/17 05:28:05;;;;;;;;;;;14.70;99.90;;;;;;6160849;23;19930;-77
2022/05/17 05:30:30;;;;;;;;;;;14.80;99.90;;;;;;6188253;23;19995;-73
2022/05/17 05:32:56;;;;;;;;;;;15.00;99.90;;;;;;6187983;23;19916;-74
2022/05/17 05:35:22;;;;;;;;;;;14.90;99.90;;;;;;6162032;23;19924;-74
2022/05/17 05:37:48;;;;;;;;;;;14.90;99.90;;;;;;6162654;23;20077;-74
2022/05/17 05:40:14;;;;;;;;;;;15.00;99.90;;;;;;6161448;23;19921;-75
2022/05/17 05:42:40;;;;;;;;;;;15.00;99.90;;;;;;6161457;23;19975;-73
2022/05/17 05:45:06;;;;;;;;;;;15.00;99.90;;;;;;6187629;23;19920;-75
2022/05/17 05:47:31;;;;;;;;;;;15.10;99.90;;;;;;6186249;23;20288;-72
2022/05/17 05:50:00;;;;;;;;;;;15.10;99.90;;;;;;6189017;23;20004;-76
2022/05/17 05:52:25;;;;;;;;;;;15.20;99.90;;;;;;6189429;23;19917;-74
2022/05/17 05:54:52;;;;;;;;;;;15.20;99.90;;;;;;6161670;23;19921;-77
2022/05/17 05:57:23;;;;;;;;;;;15.20;99.90;;;;;;6162324;23;19924;-76
2022/05/17 05:59:49;;;;;;;;;;;15.20;99.90;;;;;;6188331;23;19960;-76
2022/05/17 06:02:14;;;;;;;;;;;15.30;99.90;;;;;;6186341;23;19927;-71
2022/05/17 06:04:43;;;;;;;;;;;15.30;99.90;;;;;;6160453;23;19967;-71
2022/05/17 06:07:09;;;;;;;;;;;15.30;99.90;;;;;;6160865;23;20337;-73
2022/05/17 06:09:34;;;;;;;;;;;15.30;99.90;;;;;;6186346;23;19951;-75
2022/05/17 06:12:03;;;;;;;;;;;15.30;99.90;;;;;;6187218;23;20353;-75
2022/05/17 06:14:29;;;;;;;;;;;15.40;99.90;;;;;;6160934;23;19927;-74
2022/05/17 06:16:55;;;;;;;;;;;15.50;99.90;;;;;;6158564;23;19920;-72
2022/05/17 06:19:23;;;;;;;;;;;15.50;99.90;;;;;;6186809;23;19920;-72
2022/05/17 06:21:50;;;;;;;;;;;15.50;99.90;;;;;;6161720;23;20329;-73
2022/05/17 06:24:17;;;;;;;;;;;15.60;99.90;;;;;;6187201;23;19992;-71
2022/05/17 06:26:42;;;;;;;;;;;15.70;99.90;;;;;;6187388;23;20375;-71
2022/05/17 06:29:11;;;;;;;;;;;15.70;99.90;;;;;;6187192;23;19920;-72
2022/05/17 06:31:37;;;;;;;;;;;15.80;99.90;;;;;;6187683;23;19991;-68
2022/05/17 06:34:03;;;;;;;;;;;16.00;99.90;;;;;;6161556;23;19931;-70
2022/05/17 06:36:28;;;;;;;;;;;16.00;99.90;;;;;;6185584;23;19920;-71
2022/05/17 06:38:54;;;;;;;;;;;16.00;99.90;;;;;;6159892;23;19929;-71
2022/05/17 06:41:20;;;;;;;;;;;16.10;99.90;;;;;;6159845;23;19920;-74
2022/05/17 06:43:45;;;;;;;;;;;16.10;99.90;;;;;;6159424;23;20301;-73
2022/05/17 06:46:11;;;;;;;;;;;16.20;99.90;;;;;;6187843;23;20240;-73
2022/05/17 06:48:36;;;;;;;;;;;16.20;99.90;;;;;;6187281;23;19966;-73
2022/05/17 06:51:06;;;;;;;;;;;16.30;99.90;;;;;;6158849;23;20108;-72
2022/05/17 06:53:32;;;;;;;;;;;16.30;99.90;;;;;;6159937;23;20398;-72
2022/05/17 06:55:58;;;;;;;;;;;16.40;99.90;;;;;;6187071;23;19944;-74
2022/05/17 06:58:24;;;;;;;;;;;16.50;99.90;;;;;;6185060;23;19920;-72
2022/05/17 07:00:53;;;;;;;;;;;16.40;99.90;;;;;;6186102;23;19956;-73
2022/05/17 07:03:18;;;;;;;;;;;16.80;99.90;;;;;;6159771;23;19925;-71
2022/05/17 07:05:44;;;;;;;;;;;16.60;99.90;;;;;;6184719;23;19943;-72
2022/05/17 07:08:09;;;;;;;;;;;16.70;99.90;;;;;;6157911;23;19920;-73
2022/05/17 07:13:39;;;;;;;;;;;17.90;99.90;;;;;;6066265;23;19937;-73
2022/05/17 07:16:04;;;;;;;;;;;17.40;99.90;;;;;;6066338;23;19929;-73
2022/05/17 07:18:30;;;;;;;;;;;17.70;99.90;;;;;;6121087;23;19920;-72
2022/05/17 07:20:55;;;;;;;;;;;17.40;99.90;;;;;;6187716;23;20313;-73
2022/05/17 07:23:24;;;;;;;;;;;17.60;99.90;;;;;;6160336;23;20008;-74
2022/05/17 07:25:50;;;;;;;;;;;18.10;99.90;;;;;;6187264;23;19921;-75
2022/05/17 07:28:19;;;;;;;;;;;18.90;99.90;;;;;;6186951;23;19920;-74
2022/05/17 07:30:45;;;;;;;;;;;19.70;99.90;;;;;;6188291;23;19928;-74
2022/05/17 07:33:11;;;;;;;;;;;20.40;99.90;;;;;;6184826;23;19920;-76
2022/05/17 07:35:36;;;;;;;;;;;21.10;99.90;;;;;;6161115;23;19916;-75
2022/05/17 07:38:03;;;;;;;;;;;21.50;99.90;;;;;;6187995;23;19920;-75
2022/05/17 07:40:32;;;;;;;;;;;21.90;99.90;;;;;;6160048;23;20392;-75
2022/05/17 07:42:59;;;;;;;;;;;22.40;99.90;;;;;;6160229;23;20360;-75
2022/05/17 07:45:24;;;;;;;;;;;22.70;99.90;;;;;;6186581;23;20357;-73
2022/05/17 08:05:58;;;;;;;;;;;25.60;96.40;;;;;;6171934;22;20301;-72
2022/05/17 08:12:10;;;;;;;;;;;26.10;96.00;;;;;;6153067;23;19921;-72
2022/05/17 08:14:40;;;;;;;;;;;25.90;95.20;;;;;;6154284;23;20253;-72
2022/05/17 08:17:12;;;;;;;;;;;26.30;95.40;;;;;;6157190;23;19920;-72
2022/05/17 08:19:55;;;;;;;;;;;26.40;95.60;;;;;;6156688;23;20238;-72
2022/05/17 10:14:15;;;;;;;;;;;30.70;77.30;;;;;;6175902;23;19927;-75
2022/05/17 10:17:12;;;;;;;;;;;31.10;78.20;;;;;;6129484;23;19967;-76
2022/05/17 10:32:11;;;;;;;;;;;31.30;72.50;;;;;;6186516;23;19921;-76
2022/05/17 10:41:43;;;;;;;;;;;30.30;71.40;;;;;;6185114;23;19943;-76
2022/05/17 11:02:25;;;;;;;;;;;30.90;69.90;;;;;;6178104;22;20011;-78
2022/05/17 11:08:40;;;;;;;;;;;30.30;69.60;;;;;;6157897;23;20002;-72
2022/05/17 11:11:09;;;;;;;;;;;30.90;70.10;;;;;;6128368;23;19924;-72
2022/05/17 11:14:12;;;;;;;;;;;31.30;70.60;;;;;;6153671;23;20218;-73
2022/05/17 11:17:00;;;;;;;;;;;31.40;70.70;;;;;;6129343;23;19921;-73
2022/05/17 11:19:36;;;;;;;;;;;31.40;70.50;;;;;;6155140;23;19987;-72
2022/05/17 11:22:12;;;;;;;;;;;31.40;69.80;;;;;;6129549;23;19927;-73
2022/05/17 11:24:50;;;;;;;;;;;31.30;66.20;;;;;;6155178;23;19952;-71
2022/05/17 11:27:20;;;;;;;;;;;31.50;64.20;;;;;;6130030;23;19916;-72
2022/05/17 11:29:52;;;;;;;;;;;31.10;64.30;;;;;;6131599;23;20325;-72
2022/05/17 11:32:21;;;;;;;;;;;30.90;66.20;;;;;;6153381;23;20003;-73
2022/05/17 11:34:46;;;;;;;;;;;30.90;67.80;;;;;;6155915;23;19949;-73
2022/05/17 11:37:54;;;;;;;;;;;30.70;67.80;;;;;;6130150;23;19916;-81
2022/05/17 11:40:38;;;;;;;;;;;31.00;67.80;;;;;;6131055;23;19925;-77
2022/05/17 11:45:50;;;;;;;;;;;31.20;66.60;;;;;;6156671;23;19928;-71
2022/05/17 11:48:17;;;;;;;;;;;31.30;67.00;;;;;;6157676;23;19928;-74
2022/05/17 11:50:51;;;;;;;;;;;31.50;65.30;;;;;;6158465;23;19924;-74
2022/05/17 11:53:23;;;;;;;;;;;31.20;64.80;;;;;;6157948;23;19925;-75
2022/05/17 11:56:07;;;;;;;;;;;30.90;66.80;;;;;;6131662;23;19928;-75
2022/05/17 11:58:33;;;;;;;;;;;31.00;65.00;;;;;;6158765;23;19920;-76
2022/05/17 12:00:58;;;;;;;;;;;30.70;65.90;;;;;;6158032;23;19927;-76
2022/05/17 12:03:43;;;;;;;;;;;30.90;65.10;;;;;;6131615;23;19927;-76
2022/05/17 12:06:09;;;;;;;;;;;30.90;66.30;;;;;;6131335;23;19904;-78
2022/05/17 12:08:44;;;;;;;;;;;30.40;64.10;;;;;;6157664;23;20329;-75
2022/05/17 12:11:13;;;;;;;;;;;30.50;66.60;;;;;;6131849;23;19920;-76
2022/05/17 12:13:41;;;;;;;;;;;30.50;67.50;;;;;;6155659;23;19927;-76
2022/05/17 12:16:08;;;;;;;;;;;30.30;67.20;;;;;;6133037;23;19924;-77
2022/05/17 12:18:40;;;;;;;;;;;30.30;66.00;;;;;;6135900;23;19927;-77
2022/05/17 12:21:24;;;;;;;;;;;30.30;67.50;;;;;;6157150;23;19920;-77
2022/05/17 12:23:55;;;;;;;;;;;30.20;65.80;;;;;;6132250;23;20344;-81
2022/05/17 12:26:31;;;;;;;;;;;30.00;68.60;;;;;;6134115;23;19920;-91
2022/05/17 12:30:52;;;;;;;;;;;30.00;68.00;;;;;;6134261;23;19927;-74
2022/05/17 12:31:42;;;;;;;;;;;30.10;67.00;;;;;;6157420;23;19975;-81
2022/05/17 12:34:08;;;;;;;;;;;30.20;66.60;;;;;;6132611;23;19951;-80
2022/05/17 12:36:39;;;;;;;;;;;30.50;65.30;;;;;;6131506;23;19955;-80
2022/05/17 13:04:40;;;;;;;;;;;28.80;68.30;;;;;;6156530;23;19913;-80
2022/05/17 13:07:14;;;;;;;;;;;28.90;67.80;;;;;;6131724;23;19931;-80
2022/05/17 13:23:12;;;;;;;;;;;29.10;73.50;;;;;;6078518;23;19929;-83
2022/05/17 13:29:18;;;;;;;;;;;28.90;72.30;;;;;;6043490;23;20021;-81
2022/05/17 13:31:54;;;;;;;;;;;29.00;73.80;;;;;;6056435;23;19959;-75
2022/05/17 13:34:33;;;;;;;;;;;29.40;75.10;;;;;;6155952;23;19944;-78
2022/05/17 13:37:16;;;;;;;;;;;28.90;74.00;;;;;;6132257;23;19987;-79
2022/05/17 13:39:41;;;;;;;;;;;29.00;72.30;;;;;;6157220;23;20296;-78
2022/05/17 13:42:17;;;;;;;;;;;28.80;75.30;;;;;;6158101;23;19951;-79
2022/05/17 13:44:50;;;;;;;;;;;28.70;73.00;;;;;;6157964;23;20245;-80
2022/05/17 13:47:21;;;;;;;;;;;28.90;75.70;;;;;;6159893;23;20056;-77
2022/05/17 13:49:47;;;;;;;;;;;29.00;74.30;;;;;;6159748;23;19935;-79
2022/05/17 13:52:34;;;;;;;;;;;29.00;74.10;;;;;;6157095;23;19924;-77
2022/05/17 13:55:07;;;;;;;;;;;29.00;74.80;;;;;;6133057;23;19921;-82
2022/05/17 13:57:34;;;;;;;;;;;28.90;71.20;;;;;;6158038;23;19955;-81
2022/05/17 14:00:03;;;;;;;;;;;28.90;75.70;;;;;;6157839;23;19921;-81
2022/05/17 14:02:38;;;;;;;;;;;28.70;72.20;;;;;;6159263;23;19943;-81
2022/05/17 14:07:31;;;;;;;;;;;29.00;73.90;;;;;;6158780;22;20230;-80
2022/05/17 14:13:19;;;;;;;;;;;29.00;75.10;;;;;;6159456;23;19920;-82
2022/05/17 14:15:45;;;;;;;;;;;28.90;73.80;;;;;;6161082;23;19968;-82
2022/05/17 14:18:27;;;;;;;;;;;29.00;73.40;;;;;;6173539;23;19971;-83
2022/05/17 14:20:56;;;;;;;;;;;29.30;74.30;;;;;;6188569;23;19959;-80
2022/05/17 14:23:50;;;;;;;;;;;29.20;72.60;;;;;;6156160;23;19955;-79
2022/05/17 14:26:27;;;;;;;;;;;29.10;72.20;;;;;;6037478;23;20140;-76
2022/05/17 14:28:53;;;;;;;;;;;29.20;73.50;;;;;;6016184;23;20287;-76
2022/05/17 14:31:20;;;;;;;;;;;28.90;72.00;;;;;;6147998;23;20194;-77
2022/05/17 14:33:46;;;;;;;;;;;29.20;75.50;;;;;;6190686;23;20234;-78
2022/05/17 14:36:14;;;;;;;;;;;29.20;73.20;;;;;;6187709;23;19951;-77
2022/05/17 14:38:40;;;;;;;;;;;29.00;73.60;;;;;;6188261;23;19991;-77
2022/05/17 14:41:05;;;;;;;;;;;29.00;74.90;;;;;;6158658;23;19920;-76
2022/05/17 14:43:31;;;;;;;;;;;29.00;74.20;;;;;;6157618;23;19924;-75
2022/05/17 14:45:57;;;;;;;;;;;29.00;74.80;;;;;;6154302;23;19924;-76
2022/05/17 14:48:23;;;;;;;;;;;29.10;74.00;;;;;;6181870;23;20745;-77
2022/05/17 14:50:49;;;;;;;;;;;29.00;73.90;;;;;;6183392;23;19932;-78
2022/05/17 14:53:15;;;;;;;;;;;28.90;74.00;;;;;;6156954;23;19924;-78
2022/05/17 14:55:40;;;;;;;;;;;28.90;73.70;;;;;;6181614;23;19936;-78
2022/05/17 14:58:06;;;;;;;;;;;28.90;74.10;;;;;;6182602;23;19920;-73
2022/05/17 15:00:33;;;;;;;;;;;28.80;75.20;;;;;;6182936;23;19925;-73
2022/05/17 15:03:04;;;;;;;;;;;28.70;76.10;;;;;;6182225;23;19979;-75
2022/05/17 15:05:31;;;;;;;;;;;28.50;75.00;;;;;;6184444;23;19931;-74
2022/05/17 15:07:56;;;;;;;;;;;28.20;75.60;;;;;;6183930;23;19987;-76
2022/05/17 15:10:25;;;;;;;;;;;27.90;76.80;;;;;;6181905;23;20380;-75
2022/05/17 15:12:51;;;;;;;;;;;27.50;77.30;;;;;;6156886;23;19925;-78
2022/05/17 15:15:17;;;;;;;;;;;27.20;76.70;;;;;;6183689;23;19975;-75
2022/05/17 15:17:48;;;;;;;;;;;26.80;77.80;;;;;;6183607;23;19932;-76
2022/05/17 15:20:14;;;;;;;;;;;26.40;79.30;;;;;;6185081;23;19995;-74
2022/05/17 15:22:40;;;;;;;;;;;26.30;78.80;;;;;;6187991;23;19967;-75
2022/05/17 15:25:06;;;;;;;;;;;26.00;80.30;;;;;;6160954;23;19921;-75
2022/05/17 15:27:32;;;;;;;;;;;25.90;78.70;;;;;;6160503;23;19956;-74
2022/05/17 15:29:57;;;;;;;;;;;25.80;78.40;;;;;;6187332;23;19920;-73
2022/05/17 15:32:23;;;;;;;;;;;25.60;79.70;;;;;;6186342;23;20308;-74
2022/05/17 15:34:48;;;;;;;;;;;25.60;81.00;;;;;;6186250;23;19939;-77
2022/05/17 15:37:17;;;;;;;;;;;25.70;81.50;;;;;;6159750;23;19931;-77
2022/05/17 15:39:45;;;;;;;;;;;25.80;81.30;;;;;;6187359;23;19921;-76
2022/05/17 15:42:10;;;;;;;;;;;26.00;80.80;;;;;;6159613;23;19920;-75
2022/05/17 15:44:36;;;;;;;;;;;26.30;80.70;;;;;;6159541;23;20005;-73
2022/05/17 15:55:15;;;;;;;;;;;26.90;79.60;;;;;;6158590;23;20478;-74
2022/05/17 15:57:44;;;;;;;;;;;26.80;77.90;;;;;;6159151;23;19921;-70
2022/05/17 16:00:13;;;;;;;;;;;27.00;78.80;;;;;;6159403;23;19927;-73
2022/05/17 16:02:39;;;;;;;;;;;26.90;77.90;;;;;;6189293;23;19999;-70
2022/05/17 16:05:06;;;;;;;;;;;26.90;77.40;;;;;;6161028;23;19920;-74
2022/05/17 16:10:18;;;;;;;;;;;26.60;77.30;;;;;;6183563;23;19920;-76
2022/05/17 16:12:44;;;;;;;;;;;26.50;78.70;;;;;;6157769;23;19991;-76
2022/05/17 16:15:11;;;;;;;;;;;26.50;77.60;;;;;;6158452;23;19920;-74
2022/05/17 16:17:37;;;;;;;;;;;26.50;78.20;;;;;;6157445;23;19920;-71
2022/05/17 16:20:05;;;;;;;;;;;26.50;78.40;;;;;;6184202;23;19920;-73
2022/05/17 16:22:33;;;;;;;;;;;26.50;77.00;;;;;;6158909;23;19987;-71
2022/05/17 16:25:00;;;;;;;;;;;26.40;78.10;;;;;;6160776;23;19931;-75
2022/05/17 16:27:28;;;;;;;;;;;26.30;77.30;;;;;;6186347;23;19971;-76
2022/05/17 16:29:54;;;;;;;;;;;26.30;78.90;;;;;;6187333;23;19921;-71
2022/05/17 16:32:43;;;;;;;;;;;26.30;79.90;;;;;;6157607;23;19917;-74
2022/05/17 16:35:41;;;;;;;;;;;26.40;79.40;;;;;;6127114;23;20246;-76
2022/05/17 16:38:07;;;;;;;;;;;26.30;79.40;;;;;;6130860;23;19946;-75
2022/05/17 16:40:34;;;;;;;;;;;26.30;80.20;;;;;;6156239;23;19912;-74
2022/05/17 16:43:00;;;;;;;;;;;26.40;79.50;;;;;;6157544;23;20329;-75
2022/05/17 16:45:26;;;;;;;;;;;26.50;81.20;;;;;;6131330;23;19955;-84
2022/05/17 16:47:53;;;;;;;;;;;26.50;82.00;;;;;;6155507;23;21328;-82
2022/05/17 16:50:52;;;;;;;;;;;26.60;82.70;;;;;;6157657;23;19932;-74
2022/05/17 16:53:23;;;;;;;;;;;26.50;83.10;;;;;;6159756;23;19927;-75
2022/05/17 16:55:52;;;;;;;;;;;26.30;83.60;;;;;;6157501;23;19970;-74
2022/05/17 16:58:17;;;;;;;;;;;26.30;84.00;;;;;;6157266;23;19921;-67
2022/05/17 17:00:43;;;;;;;;;;;26.30;83.30;;;;;;6157121;23;20003;-71
2022/05/17 17:03:13;;;;;;;;;;;26.30;83.80;;;;;;6157225;23;20295;-72
2022/05/17 17:05:42;;;;;;;;;;;26.30;84.90;;;;;;6154682;23;19923;-74
2022/05/17 17:08:09;;;;;;;;;;;26.20;84.20;;;;;;6157297;23;19959;-74
2022/05/17 17:10:35;;;;;;;;;;;26.10;86.20;;;;;;6154424;23;19960;-75
2022/05/17 18:28:30;;;;;;;;;;;21.50;92.80;;;;;;6166904;22;19924;-75
2022/05/17 18:31:13;;;;;;;;;;;21.40;92.80;;;;;;6129546;23;19971;-74
2022/05/17 18:33:39;;;;;;;;;;;21.10;93.00;;;;;;6130635;23;19951;-74
2022/05/17 18:36:19;;;;;;;;;;;21.20;93.30;;;;;;6155723;23;19968;-72
2022/05/17 18:38:44;;;;;;;;;;;21.20;93.20;;;;;;6158510;23;19927;-73
2022/05/17 18:41:11;;;;;;;;;;;21.10;92.20;;;;;;6158137;23;20314;-73
2022/05/17 18:43:36;;;;;;;;;;;21.20;92.30;;;;;;6159595;23;19921;-74
2022/05/17 18:46:02;;;;;;;;;;;20.90;91.70;;;;;;6158468;23;19944;-76
2022/05/17 18:48:27;;;;;;;;;;;21.00;91.70;;;;;;6154612;23;19932;-74
2022/05/17 18:50:53;;;;;;;;;;;20.70;91.70;;;;;;6155569;23;19924;-72
2022/05/17 18:53:19;;;;;;;;;;;20.70;92.30;;;;;;6155923;23;19929;-74
2022/05/17 18:55:46;;;;;;;;;;;20.60;92.00;;;;;;6156781;23;19921;-75
2022/05/17 18:58:12;;;;;;;;;;;20.50;91.90;;;;;;6158789;23;20326;-75
2022/05/17 19:00:40;;;;;;;;;;;20.40;91.90;;;;;;6158175;23;19931;-75
2022/05/17 19:03:06;;;;;;;;;;;20.30;92.10;;;;;;6153427;23;19959;-74
2022/05/17 19:05:35;;;;;;;;;;;20.20;92.70;;;;;;6156617;23;20117;-73
2022/05/17 19:13:33;;;;;;;;;;;20.10;92.80;;;;;;6158275;23;19995;-73
2022/05/17 19:16:00;;;;;;;;;;;20.10;94.10;;;;;;6154959;23;19952;-74
2022/05/17 19:18:29;;;;;;;;;;;20.00;94.20;;;;;;6156801;23;19956;-74
2022/05/17 19:20:54;;;;;;;;;;;20.00;93.90;;;;;;6157694;23;19952;-74
2022/05/17 19:23:20;;;;;;;;;;;19.90;95.00;;;;;;6155487;23;20257;-74
2022/05/17 19:25:47;;;;;;;;;;;19.90;95.00;;;;;;6155059;23;20257;-76
2022/05/17 19:28:12;;;;;;;;;;;20.10;95.50;;;;;;6157575;23;20294;-73
2022/05/17 19:30:39;;;;;;;;;;;19.80;96.00;;;;;;6155375;23;20266;-72
2022/05/17 19:33:08;;;;;;;;;;;19.70;96.00;;;;;;6156030;23;19923;-72
2022/05/17 19:35:36;;;;;;;;;;;19.60;97.10;;;;;;6156107;23;20281;-72
2022/05/17 19:40:50;;;;;;;;;;;19.50;97.60;;;;;;6157365;23;19920;-73
2022/05/17 19:43:16;;;;;;;;;;;19.40;98.80;;;;;;6158413;23;19931;-73
2022/05/17 19:45:50;;;;;;;;;;;19.30;98.60;;;;;;6157945;23;19937;-72
2022/05/17 19:48:32;;;;;;;;;;;19.30;98.90;;;;;;6152527;23;19920;-72
2022/05/17 19:51:14;;;;;;;;;;;19.30;99.90;;;;;;6155179;23;19921;-72